Time;durP1;ratioP1;P1;durP2;ratioP2;P2;SDS_P1;SDS_P2;PMS_P1;PMS_P2;Temp;Humidity;BMP_temperature;BMP_pressure;BME280_temperature;BME280_humidity;BME280_pressure;Samples;Min_cycle;Max_cycle;Signal;HPM_P1;HPM_P2
2021/05/01 00:01:33;;;;;;;33.50;23.37;;;;;;;7.60;75.24;100635.44;5088378;28;20205;-69
2021/05/01 00:04:00;;;;;;;31.63;20.97;;;;;;;7.56;75.41;100631.22;5082958;28;20216;-68
2021/05/01 00:06:26;;;;;;;29.20;21.53;;;;;;;7.48;75.34;100634.28;5105167;22;20221;-67
2021/05/01 00:08:52;;;;;;;29.17;21.03;;;;;;;7.43;75.24;100625.69;5077380;28;20207;-66
2021/05/01 00:11:19;;;;;;;30.33;20.37;;;;;;;7.41;75.30;100627.56;5078452;28;20697;-66
2021/05/01 00:13:46;;;;;;;26.97;20.47;;;;;;;7.39;75.76;100632.06;5069435;28;20730;-65
2021/05/01 00:16:12;;;;;;;33.13;21.50;;;;;;;7.37;75.71;100623.34;5059137;28;20221;-66
2021/05/01 00:18:38;;;;;;;26.67;20.23;;;;;;;7.34;75.56;100615.56;5059048;28;20224;-67
2021/05/01 00:21:05;;;;;;;28.63;20.80;;;;;;;7.32;75.99;100614.78;5054988;28;20308;-66
2021/05/01 00:23:31;;;;;;;27.47;19.97;;;;;;;7.30;75.57;100614.88;5054915;28;20603;-68
2021/05/01 00:25:58;;;;;;;28.40;21.13;;;;;;;7.28;75.94;100614.09;5053441;28;21014;-68
2021/05/01 00:28:24;;;;;;;27.40;20.87;;;;;;;7.25;75.43;100613.38;5059106;28;20224;-66
2021/05/01 00:30:50;;;;;;;30.80;21.87;;;;;;;7.19;75.37;100614.53;5053448;28;20216;-65
2021/05/01 00:33:16;;;;;;;26.03;20.17;;;;;;;7.14;75.71;100610.41;5057338;28;20263;-67
2021/05/01 00:35:43;;;;;;;26.47;19.77;;;;;;;7.08;75.53;100603.63;5053470;28;20233;-66
2021/05/01 00:38:10;;;;;;;26.47;19.77;;;;;;;7.04;75.89;100602.06;5061079;28;20296;-66
2021/05/01 00:40:36;;;;;;;26.07;19.27;;;;;;;7.02;75.95;100598.63;5058650;28;20666;-67
2021/05/01 00:43:02;;;;;;;25.53;19.43;;;;;;;6.99;75.74;100595.28;5059706;28;20228;-68
2021/05/01 00:45:28;;;;;;;26.13;20.10;;;;;;;6.97;75.65;100593.56;5070216;28;20220;-65
2021/05/01 00:47:54;;;;;;;26.23;20.80;;;;;;;6.96;75.97;100599.81;5072383;28;20205;-68
2021/05/01 00:50:20;;;;;;;27.13;20.00;;;;;;;6.94;75.79;100585.78;5058400;28;20211;-67
2021/05/01 00:52:48;;;;;;;25.73;19.53;;;;;;;6.93;75.95;100584.06;5066917;28;20212;-67
2021/05/01 00:55:15;;;;;;;31.03;22.27;;;;;;;6.93;75.90;100593.78;5061121;28;20248;-68
2021/05/01 00:57:42;;;;;;;35.73;23.63;;;;;;;6.91;75.93;100588.56;5070433;28;20255;-67
2021/05/01 01:00:19;;;;;;;47.70;27.60;;;;;;;6.90;76.21;100589.50;5066170;28;20225;-67
2021/05/01 01:02:45;;;;;;;58.53;32.37;;;;;;;6.90;76.21;100588.63;5055107;28;20259;-67
2021/05/01 01:05:12;;;;;;;60.03;33.07;;;;;;;6.88;76.46;100591.38;5058352;28;20241;-66
2021/05/01 01:07:38;;;;;;;29.67;20.60;;;;;;;6.86;76.19;100593.22;5055238;28;20237;-67
2021/05/01 01:10:05;;;;;;;20.67;15.63;;;;;;;6.82;76.27;100590.78;5057713;28;20300;-68
2021/05/01 01:12:32;;;;;;;26.97;19.60;;;;;;;6.75;75.84;100587.59;5061779;28;20204;-67
2021/05/01 01:14:59;;;;;;;27.10;20.50;;;;;;;6.70;75.95;100589.59;5067398;28;20280;-67
2021/05/01 01:17:26;;;;;;;23.23;17.17;;;;;;;6.66;76.27;100585.38;5059943;28;20216;-67
2021/05/01 01:19:53;;;;;;;26.83;20.00;;;;;;;6.61;75.91;100584.78;5054939;28;20240;-65
2021/05/01 01:22:20;;;;;;;31.93;21.83;;;;;;;6.55;76.03;100582.41;5056427;28;20324;-66
2021/05/01 01:24:46;;;;;;;38.23;24.97;;;;;;;6.51;76.46;100594.06;5058157;28;20207;-66
2021/05/01 01:27:12;;;;;;;34.03;23.73;;;;;;;6.49;76.75;100580.03;5064865;28;20202;-66
2021/05/01 01:29:40;;;;;;;35.43;24.10;;;;;;;6.50;76.85;100587.06;5060595;28;20200;-67
2021/05/01 01:32:07;;;;;;;35.53;24.60;;;;;;;6.51;77.13;100580.84;5055544;28;20206;-67
2021/05/01 01:34:33;;;;;;;36.80;24.27;;;;;;;6.54;77.72;100583.34;5061660;28;20208;-66
2021/05/01 01:36:59;;;;;;;36.43;23.30;;;;;;;6.54;77.97;100575.41;5053221;28;20251;-66
2021/05/01 01:39:26;;;;;;;33.00;23.50;;;;;;;6.55;77.57;100574.47;5056813;28;20205;-67
2021/05/01 01:41:52;;;;;;;36.33;23.30;;;;;;;6.54;77.74;100581.56;5057349;28;20694;-67
2021/05/01 01:44:18;;;;;;;34.37;23.37;;;;;;;6.51;77.90;100571.13;5056211;28;20592;-66
2021/05/01 01:46:44;;;;;;;32.60;22.07;;;;;;;6.47;77.85;100571.31;5065025;28;20220;-66
2021/05/01 01:49:10;;;;;;;34.20;23.80;;;;;;;6.44;78.08;100576.78;5057225;28;20220;-66
2021/05/01 01:51:37;;;;;;;37.53;24.47;;;;;;;6.44;78.16;100574.13;5060548;28;20227;-67
2021/05/01 01:54:03;;;;;;;35.70;24.17;;;;;;;6.44;78.50;100574.13;5056949;28;20201;-66
2021/05/01 01:56:30;;;;;;;34.83;24.00;;;;;;;6.47;78.60;100579.25;5054252;28;20706;-68
2021/05/01 01:58:56;;;;;;;35.33;23.50;;;;;;;6.48;78.79;100571.25;5066660;28;20201;-66
2021/05/01 02:01:22;;;;;;;34.53;24.23;;;;;;;6.52;79.09;100580.75;5062984;28;20208;-67
2021/05/01 02:03:48;;;;;;;33.17;23.73;;;;;;;6.56;79.05;100571.75;5061840;28;20224;-66
2021/05/01 02:06:16;;;;;;;36.90;24.23;;;;;;;6.59;79.02;100574.25;5061818;28;20642;-66
2021/05/01 02:08:42;;;;;;;40.30;25.23;;;;;;;6.64;79.39;100571.38;5052486;28;20217;-66
2021/05/01 02:11:08;;;;;;;36.70;25.07;;;;;;;6.66;79.10;100564.22;5068613;28;20296;-66
2021/05/01 02:13:35;;;;;;;34.60;24.77;;;;;;;6.68;79.10;100565.00;5062179;28;20287;-66
2021/05/01 02:16:01;;;;;;;37.87;25.77;;;;;;;6.68;79.09;100572.94;5058729;28;20241;-66
2021/05/01 02:18:27;;;;;;;36.50;24.40;;;;;;;6.68;79.33;100567.66;5070437;28;20197;-66
2021/05/01 02:20:53;;;;;;;39.33;24.77;;;;;;;6.70;79.42;100564.94;5051105;28;20301;-67
2021/05/01 02:23:19;;;;;;;34.40;23.47;;;;;;;6.68;79.09;100559.72;5059961;28;20255;-66
2021/05/01 02:25:45;;;;;;;33.77;23.40;;;;;;;6.68;79.61;100557.06;5052007;28;20235;-66
2021/05/01 02:28:11;;;;;;;36.30;24.67;;;;;;;6.68;79.63;100557.06;5057852;28;20240;-66
2021/05/01 02:30:38;;;;;;;32.83;23.47;;;;;;;6.69;79.45;100555.28;5062703;28;20213;-66
2021/05/01 02:33:04;;;;;;;31.60;22.87;;;;;;;6.69;79.11;100553.47;5068436;28;20287;-67
2021/05/01 02:35:32;;;;;;;37.70;23.40;;;;;;;6.68;79.31;100550.91;5058707;28;20232;-66
2021/05/01 02:37:59;;;;;;;37.33;22.63;;;;;;;6.66;79.44;100545.69;5050442;28;20201;-66
2021/05/01 02:40:30;;;;;;;38.67;24.83;;;;;;;6.66;79.27;100555.41;5068442;28;20205;-66
2021/05/01 02:42:55;;;;;;;32.97;23.77;;;;;;;6.63;79.37;100548.47;5058037;28;20214;-66
2021/05/01 02:45:22;;;;;;;38.70;24.13;;;;;;;6.61;79.49;100547.72;5057135;28;20259;-66
2021/05/01 02:47:49;;;;;;;37.57;23.87;;;;;;;6.60;79.81;100541.56;5065640;28;20214;-67
2021/05/01 02:50:17;;;;;;;33.57;23.27;;;;;;;6.58;79.37;100542.59;5054680;28;20212;-66
2021/05/01 02:52:43;;;;;;;33.93;23.03;;;;;;;6.56;80.18;100536.50;5064807;28;20209;-65
2021/05/01 02:55:10;;;;;;;34.40;23.10;;;;;;;6.56;79.72;100536.50;5065273;28;20312;-66
2021/05/01 02:57:36;;;;;;;34.30;23.80;;;;;;;6.56;79.73;100534.72;5059535;28;20208;-66
2021/05/01 03:00:05;;;;;;;32.73;23.30;;;;;;;6.57;79.78;100532.94;5063504;28;20667;-66
2021/05/01 03:02:31;;;;;;;32.73;23.00;;;;;;;6.58;79.99;100537.28;5052584;28;20230;-66
2021/05/01 03:04:58;;;;;;;35.03;23.40;;;;;;;6.58;79.99;100526.69;5058339;28;20276;-65
2021/05/01 03:07:24;;;;;;;33.30;22.97;;;;;;;6.59;79.51;100529.28;5064669;28;20200;-66
2021/05/01 03:09:51;;;;;;;33.73;21.67;;;;;;;6.58;80.02;100522.28;5066074;28;20212;-67
2021/05/01 03:12:17;;;;;;;36.20;23.33;;;;;;;6.59;79.98;100524.00;5055221;28;20202;-67
2021/05/01 03:14:44;;;;;;;34.03;23.20;;;;;;;6.60;80.12;100524.84;5052102;28;20214;-66
2021/05/01 03:17:10;;;;;;;36.17;24.27;;;;;;;6.60;79.88;100527.50;5055086;28;20682;-66
2021/05/01 03:19:36;;;;;;;35.23;24.50;;;;;;;6.59;79.85;100521.34;5058920;28;20247;-66
2021/05/01 03:22:04;;;;;;;35.70;23.30;;;;;;;6.58;79.90;100522.28;5052697;28;20253;-67
2021/05/01 03:24:30;;;;;;;34.73;23.77;;;;;;;6.59;79.92;100523.13;5063673;28;20251;-67
2021/05/01 03:26:56;;;;;;;29.23;20.70;;;;;;;6.56;79.60;100528.56;5053297;28;20607;-66
2021/05/01 03:29:22;;;;;;;29.77;20.70;;;;;;;6.49;79.43;100524.50;5055644;28;20201;-67
2021/05/01 03:31:49;;;;;;;29.20;19.43;;;;;;;6.42;79.45;100531.88;5062514;28;20216;-67
2021/05/01 03:34:15;;;;;;;25.83;19.23;;;;;;;6.35;79.33;100525.16;5063024;28;20571;-66
2021/05/01 03:36:41;;;;;;;28.20;19.43;;;;;;;6.31;79.14;100522.72;5057169;28;20229;-66
2021/05/01 03:39:08;;;;;;;24.17;18.30;;;;;;;6.28;79.68;100529.00;5059378;28;20212;-67
2021/05/01 03:41:34;;;;;;;27.53;19.63;;;;;;;6.25;79.51;100524.75;5060539;28;20213;-66
2021/05/01 03:44:00;;;;;;;28.97;20.53;;;;;;;6.19;79.10;100529.47;5058672;28;20248;-66
2021/05/01 03:46:26;;;;;;;30.73;21.20;;;;;;;6.14;79.32;100529.69;5054789;28;20221;-66
2021/05/01 03:48:52;;;;;;;28.90;20.60;;;;;;;6.10;79.50;100532.53;5062323;28;20205;-66
2021/05/01 03:51:18;;;;;;;29.47;20.80;;;;;;;6.06;79.41;100526.56;5061614;28;20255;-67
2021/05/01 03:53:44;;;;;;;27.77;20.03;;;;;;;6.05;79.59;100531.91;5060722;28;20208;-66
2021/05/01 03:56:12;;;;;;;27.40;19.43;;;;;;;6.02;79.40;100522.31;5066948;28;20316;-67
2021/05/01 03:58:37;;;;;;;30.90;21.43;;;;;;;6.01;79.77;100531.19;5060894;28;20236;-66
2021/05/01 04:01:04;;;;;;;30.70;20.73;;;;;;;6.00;79.53;100526.81;5067718;28;20205;-66
2021/05/01 04:03:29;;;;;;;29.43;20.90;;;;;;;6.01;79.83;100535.63;5057131;28;20229;-66
2021/05/01 04:05:55;;;;;;;32.90;20.47;;;;;;;6.00;79.85;100534.75;5065295;28;20735;-67
2021/05/01 04:08:22;;;;;;;30.53;21.13;;;;;;;6.01;80.19;100531.19;5065624;28;20206;-67
2021/05/01 04:10:48;;;;;;;32.10;21.77;;;;;;;6.02;80.21;100532.91;5066970;28;20212;-67
2021/05/01 04:13:15;;;;;;;28.23;18.87;;;;;;;6.02;80.30;100527.63;5061612;28;20658;-65
2021/05/01 04:15:41;;;;;;;31.17;21.53;;;;;;;6.01;79.93;100528.53;5072650;28;20229;-66
2021/05/01 04:18:12;;;;;;;29.27;21.27;;;;;;;6.01;80.23;100536.47;5060213;28;20694;-66
2021/05/01 04:20:37;;;;;;;33.77;21.87;;;;;;;6.03;80.42;100531.97;5054618;28;20209;-68
2021/05/01 04:23:04;;;;;;;32.23;22.13;;;;;;;6.04;80.18;100546.06;5064420;28;20658;-67
2021/05/01 04:25:30;;;;;;;33.50;22.93;;;;;;;6.05;80.43;100539.84;5063703;28;20232;-67
2021/05/01 04:27:56;;;;;;;35.07;22.83;;;;;;;6.07;80.18;100538.84;5062761;28;20211;-67
2021/05/01 04:30:23;;;;;;;34.57;21.63;;;;;;;6.09;80.49;100544.88;5064963;28;20205;-67
2021/05/01 04:32:50;;;;;;;28.13;19.00;;;;;;;6.08;80.33;100532.63;5065497;28;20660;-67
2021/05/01 04:35:16;;;;;;;29.80;20.93;;;;;;;6.06;80.13;100534.47;5054433;28;20299;-67
2021/05/01 04:37:42;;;;;;;32.13;20.87;;;;;;;6.03;80.11;100542.56;5057432;28;20201;-67
2021/05/01 04:40:09;;;;;;;30.77;21.37;;;;;;;5.99;80.12;100535.69;5059227;28;20206;-66
2021/05/01 04:42:37;;;;;;;31.40;20.67;;;;;;;5.96;79.96;100543.75;5061508;28;20236;-67
2021/05/01 04:45:05;;;;;;;30.00;20.87;;;;;;;5.93;80.16;100538.59;5060126;28;20236;-67
2021/05/01 04:47:31;;;;;;;30.70;21.47;;;;;;;5.92;80.71;100537.75;5064408;28;20212;-67
2021/05/01 04:49:57;;;;;;;29.90;20.70;;;;;;;5.92;80.67;100531.59;5057159;28;20206;-68
2021/05/01 04:52:23;;;;;;;31.20;21.03;;;;;;;5.96;80.85;100538.47;5067978;28;20288;-67
2021/05/01 04:54:52;;;;;;;32.83;21.23;;;;;;;6.03;81.00;100539.91;5060372;28;20371;-65
2021/05/01 04:57:18;;;;;;;32.20;21.53;;;;;;;6.07;80.95;100535.34;5064948;28;20207;-66
2021/05/01 04:59:44;;;;;;;36.63;23.57;;;;;;;6.12;81.08;100536.81;5067825;28;20197;-65
2021/05/01 05:02:10;;;;;;;35.10;23.27;;;;;;;6.16;81.23;100541.03;5064802;28;20654;-67
2021/05/01 05:04:37;;;;;;;36.70;22.53;;;;;;;6.22;81.07;100537.25;5061485;28;20570;-66
2021/05/01 05:07:03;;;;;;;40.00;25.77;;;;;;;6.28;81.06;100543.09;5063543;28;20241;-67
2021/05/01 05:09:29;;;;;;;40.73;25.43;;;;;;;6.33;81.47;100547.31;5072160;28;20208;-66
2021/05/01 05:11:54;;;;;;;36.20;23.80;;;;;;;6.38;81.45;100543.53;5052256;28;20244;-65
2021/05/01 05:14:20;;;;;;;38.50;24.47;;;;;;;6.43;81.53;100538.88;5060076;28;20326;-66
2021/05/01 05:16:46;;;;;;;41.70;25.60;;;;;;;6.48;81.70;100542.16;5060242;28;20737;-66
2021/05/01 05:19:12;;;;;;;40.80;25.03;;;;;;;6.51;81.77;100536.72;5061560;28;20281;-67
2021/05/01 05:21:39;;;;;;;39.87;25.67;;;;;;;6.58;81.64;100542.59;5065593;28;20646;-66
2021/05/01 05:24:06;;;;;;;42.63;26.53;;;;;;;6.62;82.02;100546.78;5053676;28;20233;-66
2021/05/01 05:26:47;;;;;;;43.67;27.33;;;;;;;6.68;82.14;100549.13;5060301;28;20694;-66
2021/05/01 05:29:13;;;;;;;40.30;25.50;;;;;;;6.73;82.00;100541.81;5061048;28;20287;-67
2021/05/01 05:31:39;;;;;;;41.00;25.67;;;;;;;6.79;82.14;100540.69;5064046;28;20209;-66
2021/05/01 05:34:05;;;;;;;43.17;25.50;;;;;;;6.83;82.37;100542.22;5071116;28;20285;-66
2021/05/01 05:36:31;;;;;;;43.33;26.03;;;;;;;6.89;82.66;100542.78;5070094;28;20220;-67
2021/05/01 05:38:58;;;;;;;46.80;27.60;;;;;;;6.99;82.57;100543.16;5071584;28;20215;-67
2021/05/01 05:41:24;;;;;;;44.70;26.53;;;;;;;7.08;82.75;100544.50;5067322;28;20220;-66
2021/05/01 05:43:50;;;;;;;42.60;26.37;;;;;;;7.16;82.40;100547.63;5067282;28;20719;-67
2021/05/01 05:46:17;;;;;;;42.47;25.93;;;;;;;7.29;83.50;100561.97;5063242;28;20229;-67
2021/05/01 05:48:43;;;;;;;40.33;25.00;;;;;;;7.38;83.05;100557.97;5060377;28;20202;-67
2021/05/01 05:51:10;;;;;;;42.40;26.57;;;;;;;7.45;82.82;100559.38;5055062;28;20667;-67
2021/05/01 05:53:36;;;;;;;40.97;25.87;;;;;;;7.56;83.17;100555.22;5057408;28;20209;-67
2021/05/01 05:56:03;;;;;;;39.57;26.00;;;;;;;7.71;83.31;100555.34;5054533;28;20276;-66
2021/05/01 05:58:30;;;;;;;38.60;25.83;;;;;;;7.85;83.36;100555.47;5057302;28;20283;-67
2021/05/01 06:00:56;;;;;;;36.03;25.53;;;;;;;7.98;83.26;100556.53;5064344;28;20227;-67
2021/05/01 06:03:24;;;;;;;39.10;26.23;;;;;;;8.14;82.76;100557.41;5058217;28;20225;-67
2021/05/01 06:05:56;;;;;;;38.17;24.80;;;;;;;8.26;82.92;100551.41;5088487;22;20223;-90
2021/05/01 06:08:24;;;;;;;35.73;23.33;;;;;;;8.34;82.19;100551.91;5133645;28;20676;-91
2021/05/01 06:10:51;;;;;;;35.83;25.03;;;;;;;8.44;82.02;100543.41;5112526;28;20207;-91
2021/05/01 06:13:20;;;;;;;34.47;24.23;;;;;;;8.53;82.43;100541.09;5112844;28;20255;-94
2021/05/01 06:15:47;;;;;;;34.40;23.70;;;;;;;8.63;81.54;100549.38;5118178;28;20200;-94
2021/05/01 06:18:19;;;;;;;35.20;23.73;;;;;;;8.70;81.51;100548.09;5119629;28;20200;-93
2021/05/01 06:20:45;;;;;;;32.67;23.80;;;;;;;8.77;81.11;100545.97;5112845;28;20292;-89
2021/05/01 06:23:11;;;;;;;32.57;22.93;;;;;;;8.86;81.19;100556.03;5112944;28;20264;-89
2021/05/01 06:25:38;;;;;;;34.47;24.27;;;;;;;8.94;81.01;100546.69;5111023;28;20220;-89
2021/05/01 06:28:05;;;;;;;35.27;24.63;;;;;;;9.02;80.55;100541.78;5110275;28;20241;-89
2021/05/01 06:30:38;;;;;;;30.03;22.80;;;;;;;9.13;80.11;100543.81;5111713;28;20254;-89
2021/05/01 06:33:05;;;;;;;30.83;22.30;;;;;;;9.20;79.79;100546.97;5113783;28;20200;-89
2021/05/01 06:35:32;;;;;;;26.20;19.97;;;;;;;9.29;79.62;100543.78;5111878;28;20200;-88
2021/05/01 06:37:58;;;;;;;26.33;19.67;;;;;;;9.36;78.91;100550.41;5112904;28;20795;-91
2021/05/01 06:40:31;;;;;;;31.53;20.80;;;;;;;9.38;78.65;100546.72;5104845;28;20209;-90
2021/05/01 06:42:59;;;;;;;24.60;18.57;;;;;;;9.43;77.17;100553.56;5091373;28;20237;-88
2021/05/01 06:45:26;;;;;;;19.87;16.53;;;;;;;9.48;77.44;100552.34;5088584;28;20295;-89
2021/05/01 06:47:55;;;;;;;25.87;18.87;;;;;;;9.51;76.47;100552.13;5087431;28;20217;-89
2021/05/01 06:50:22;;;;;;;23.97;17.40;;;;;;;9.57;75.83;100549.13;5090231;28;20216;-88
2021/05/01 06:52:50;;;;;;;22.77;17.57;;;;;;;9.66;75.58;100551.25;5093844;28;20239;-89
2021/05/01 06:55:17;;;;;;;23.40;18.67;;;;;;;9.77;75.44;100544.38;5093760;28;20631;-89
2021/05/01 06:57:45;;;;;;;20.23;16.27;;;;;;;9.92;75.14;100551.41;5102630;28;20222;-90
2021/05/01 07:00:14;;;;;;;19.30;15.60;;;;;;;10.05;74.54;100542.56;5111622;28;20258;-89
2021/05/01 07:02:44;;;;;;;21.60;17.37;;;;;;;10.18;73.50;100539.16;5113131;28;20199;-90
2021/05/01 07:05:14;;;;;;;22.53;17.57;;;;;;;10.33;73.09;100544.38;5110997;28;20219;-88
2021/05/01 07:07:41;;;;;;;19.63;16.07;;;;;;;10.48;72.83;100547.00;5105586;28;20204;-89
2021/05/01 07:10:11;;;;;;;20.03;17.40;;;;;;;10.60;71.46;100551.53;5091183;28;20228;-89
2021/05/01 07:12:42;;;;;;;19.20;16.43;;;;;;;10.75;71.56;100548.72;5108559;28;20219;-88
2021/05/01 07:15:10;;;;;;;19.43;16.37;;;;;;;10.89;70.87;100550.50;5105855;28;20223;-88
2021/05/01 07:17:36;;;;;;;20.93;17.33;;;;;;;10.98;69.92;100552.53;5110451;28;20943;-89
2021/05/01 07:20:04;;;;;;;18.13;15.47;;;;;;;11.10;69.64;100540.22;5110346;28;20296;-88
2021/05/01 07:22:31;;;;;;;20.17;16.27;;;;;;;11.28;69.32;100536.31;5110208;28;20201;-88
2021/05/01 07:24:59;;;;;;;18.50;15.97;;;;;;;11.49;68.99;100534.81;5113293;28;20207;-88
2021/05/01 07:27:32;;;;;;;19.60;16.10;;;;;;;11.64;67.80;100537.41;5112199;28;20200;-88
2021/05/01 07:30:02;;;;;;;18.03;15.93;;;;;;;11.75;67.04;100526.81;5120938;28;20223;-88
2021/05/01 07:32:32;;;;;;;19.30;16.37;;;;;;;11.89;67.04;100532.06;5119685;28;20272;-90
2021/05/01 07:35:08;;;;;;;18.97;15.47;;;;;;;12.05;66.57;100518.50;5120428;28;20205;-90
2021/05/01 07:37:39;;;;;;;20.13;16.27;;;;;;;12.24;65.90;100518.03;5121079;28;20193;-89
2021/05/01 07:40:09;;;;;;;18.10;15.87;;;;;;;12.36;65.09;100517.16;5119400;28;20224;-90
2021/05/01 07:42:38;;;;;;;17.13;15.40;;;;;;;12.50;64.45;100520.50;5122152;28;20186;-91
2021/05/01 07:45:07;;;;;;;17.53;15.43;;;;;;;12.66;64.51;100508.69;5120437;28;20207;-87
2021/05/01 07:47:37;;;;;;;17.97;15.43;;;;;;;12.77;63.90;100511.41;5117563;28;20209;-88
2021/05/01 07:50:08;;;;;;;16.73;14.97;;;;;;;12.88;62.80;100522.16;5115753;28;20227;-87
2021/05/01 07:52:38;;;;;;;18.13;15.77;;;;;;;12.98;62.69;100520.50;5114376;28;20200;-87
2021/05/01 07:55:05;;;;;;;19.10;16.10;;;;;;;13.11;61.82;100520.41;5098530;28;20231;-87
2021/05/01 07:57:31;;;;;;;20.33;16.30;;;;;;;13.18;61.83;100522.56;5110882;28;20196;-88
2021/05/01 07:59:57;;;;;;;17.33;15.23;;;;;;;13.24;61.04;100520.38;5110746;28;20775;-87
2021/05/01 08:02:29;;;;;;;17.43;15.60;;;;;;;13.29;61.00;100520.88;5105794;28;20236;-89
2021/05/01 08:05:00;;;;;;;19.07;15.80;;;;;;;13.43;61.15;100524.22;5099193;28;20204;-87
2021/05/01 08:07:27;;;;;;;17.70;15.60;;;;;;;13.54;60.50;100518.88;5115388;28;20219;-89
2021/05/01 08:09:55;;;;;;;17.87;16.00;;;;;;;13.64;59.64;100510.97;5114175;28;20240;-90
2021/05/01 08:12:21;;;;;;;18.87;16.20;;;;;;;13.71;59.68;100506.00;5113740;28;20200;-87
2021/05/01 08:14:47;;;;;;;17.67;15.77;;;;;;;13.77;59.02;100506.38;5099449;28;20268;-88
2021/05/01 08:17:13;;;;;;;17.10;15.10;;;;;;;13.78;58.71;100509.91;5097448;28;20224;-88
2021/05/01 08:19:39;;;;;;;18.63;16.30;;;;;;;13.76;58.84;100503.81;5110762;28;20209;-91
2021/05/01 08:22:06;;;;;;;22.77;18.23;;;;;;;13.73;58.61;100507.56;5118838;28;20212;-88
2021/05/01 08:24:32;;;;;;;18.53;16.53;;;;;;;13.70;58.96;100499.78;5114779;28;20224;-88
2021/05/01 08:26:59;;;;;;;17.80;15.73;;;;;;;13.72;58.66;100511.22;5105312;28;20291;-88
2021/05/01 08:29:25;;;;;;;19.07;17.07;;;;;;;13.71;58.58;100508.66;5101113;28;20308;-89
2021/05/01 08:31:51;;;;;;;19.03;17.07;;;;;;;13.64;58.24;100505.59;5092018;28;20677;-88
2021/05/01 08:34:17;;;;;;;18.17;16.37;;;;;;;13.62;58.41;100498.66;5101398;28;20730;-88
2021/05/01 08:36:43;;;;;;;18.60;16.53;;;;;;;13.66;58.67;100511.69;5092873;28;20211;-89
2021/05/01 08:39:10;;;;;;;17.93;16.03;;;;;;;13.78;59.14;100508.06;5099560;28;20246;-91
2021/05/01 08:41:36;;;;;;;18.47;16.43;;;;;;;13.90;58.43;100515.13;5100731;28;20284;-89
2021/05/01 08:44:07;;;;;;;16.20;14.50;;;;;;;14.00;57.52;100509.88;5100011;28;20306;-90
2021/05/01 08:46:33;;;;;;;18.23;16.27;;;;;;;14.13;57.64;100515.97;5100281;28;20273;-89
2021/05/01 08:48:59;;;;;;;19.30;17.03;;;;;;;14.30;57.38;100513.75;5099909;28;20772;-88
2021/05/01 08:51:25;;;;;;;19.20;16.03;;;;;;;14.39;56.00;100516.53;5099300;28;20290;-89
2021/05/01 08:53:52;;;;;;;19.47;16.60;;;;;;;14.44;54.98;100510.84;5099351;28;20204;-89
2021/05/01 08:56:18;;;;;;;17.10;15.27;;;;;;;14.41;54.57;100516.44;5097034;28;20196;-88
2021/05/01 08:58:44;;;;;;;18.43;16.47;;;;;;;14.36;54.59;100515.94;5099219;28;20283;-89
2021/05/01 09:01:13;;;;;;;17.80;15.20;;;;;;;14.28;54.34;100505.84;5090962;28;20213;-88
2021/05/01 09:03:39;;;;;;;17.00;15.20;;;;;;;14.21;54.25;100497.44;5081058;28;20252;-88
2021/05/01 09:06:08;;;;;;;18.90;16.40;;;;;;;14.22;54.44;100509.00;5081565;28;20303;-88
2021/05/01 09:08:39;;;;;;;17.20;15.23;;;;;;;14.22;53.91;100492.94;5081193;28;20659;-88
2021/05/01 09:11:05;;;;;;;17.27;15.30;;;;;;;14.22;53.49;100498.28;5098197;28;20204;-88
2021/05/01 09:13:32;;;;;;;16.17;14.53;;;;;;;14.28;53.88;100497.81;5092903;28;20201;-88
2021/05/01 09:16:03;;;;;;;17.40;15.53;;;;;;;14.39;53.87;100500.47;5091038;28;20280;-88
2021/05/01 09:18:46;;;;;;;19.00;15.93;;;;;;;14.45;53.76;100502.69;5098801;28;20227;-91
2021/05/01 09:21:14;;;;;;;16.57;14.83;;;;;;;14.48;53.40;100497.06;5104058;28;20207;-92
2021/05/01 09:23:40;;;;;;;17.43;14.93;;;;;;;14.56;53.80;100501.78;5099978;28;20239;-88
2021/05/01 09:26:09;;;;;;;17.27;14.90;;;;;;;14.66;53.51;100500.06;5088852;28;20215;-88
2021/05/01 09:28:42;;;;;;;16.20;14.60;;;;;;;14.72;53.00;100496.00;5100248;28;20192;-88
2021/05/01 09:31:10;;;;;;;17.37;15.53;;;;;;;14.74;52.51;100505.63;5099969;28;20231;-88
2021/05/01 09:33:38;;;;;;;16.57;14.83;;;;;;;14.78;52.57;100508.91;5090638;28;20227;-89
2021/05/01 09:36:08;;;;;;;16.90;15.10;;;;;;;14.79;52.02;100503.44;5098639;28;20283;-89
2021/05/01 09:38:37;;;;;;;18.50;16.27;;;;;;;14.81;51.74;100500.63;5097937;28;20207;-89
2021/05/01 09:41:10;;;;;;;18.27;16.27;;;;;;;14.80;51.64;100510.50;5094339;28;20216;-89
2021/05/01 09:43:36;;;;;;;20.00;17.00;;;;;;;14.78;51.86;100508.91;5090417;28;20274;-89
2021/05/01 09:46:14;;;;;;;19.20;16.00;;;;;;;14.75;52.03;100510.00;5078239;28;20610;-89
2021/05/01 09:48:41;;;;;;;22.10;18.00;;;;;;;14.72;52.59;100504.06;5086111;28;20722;-89
2021/05/01 09:51:07;;;;;;;19.33;15.80;;;;;;;14.70;52.48;100498.81;5079021;28;20290;-88
2021/05/01 09:53:34;;;;;;;20.70;17.33;;;;;;;14.71;52.77;100503.19;5083290;28;20284;-89
2021/05/01 09:56:01;;;;;;;20.37;17.23;;;;;;;14.71;52.71;100503.19;5083840;28;20205;-89
2021/05/01 09:58:30;;;;;;;19.43;17.10;;;;;;;14.73;53.34;100493.19;5090599;28;20240;-88
2021/05/01 10:01:18;;;;;;;20.53;18.27;;;;;;;14.80;53.25;100493.56;5086887;28;20212;-88
2021/05/01 10:03:45;;;;;;;22.13;17.43;;;;;;;14.86;53.49;100488.53;5089089;28;20651;-88
2021/05/01 10:06:14;;;;;;;20.00;16.53;;;;;;;14.94;52.79;100485.19;5090228;28;20234;-88
2021/05/01 10:08:42;;;;;;;19.17;17.07;;;;;;;14.98;53.00;100489.34;5077807;28;20205;-88
2021/05/01 10:11:09;;;;;;;18.47;16.47;;;;;;;15.01;52.71;100485.53;5080418;28;20223;-88
2021/05/01 10:13:36;;;;;;;19.43;16.30;;;;;;;15.05;52.18;100497.72;5079277;28;20214;-89
2021/05/01 10:16:06;;;;;;;19.90;17.13;;;;;;;15.10;51.74;100492.81;5091309;28;20207;-89
2021/05/01 10:18:33;;;;;;;20.33;17.47;;;;;;;15.18;52.06;100487.66;5089321;28;20583;-89
2021/05/01 10:21:00;;;;;;;21.93;16.43;;;;;;;15.28;51.94;100500.13;5082834;28;20200;-88
2021/05/01 10:23:26;;;;;;;18.80;16.27;;;;;;;15.34;50.85;100493.41;5079040;28;20418;-88
2021/05/01 10:25:52;;;;;;;21.67;16.63;;;;;;;15.39;50.86;100493.88;5076509;28;20647;-88
2021/05/01 10:28:19;;;;;;;19.23;16.87;;;;;;;15.44;50.46;100497.00;5092539;28;20295;-88
2021/05/01 10:30:48;;;;;;;19.10;15.40;;;;;;;15.48;49.67;100494.91;5080494;28;20225;-88
2021/05/01 10:33:29;;;;;;;17.00;15.30;;;;;;;15.48;49.05;100494.91;5086963;28;20235;-88
2021/05/01 10:36:01;;;;;;;18.67;15.77;;;;;;;15.45;48.21;100479.91;5086089;28;20210;-88
2021/05/01 10:38:31;;;;;;;21.63;15.90;;;;;;;15.49;48.53;100481.34;5080944;28;20188;-89
2021/05/01 10:40:58;;;;;;;35.60;17.13;;;;;;;15.49;47.89;100477.81;5079297;28;20216;-88
2021/05/01 10:43:26;;;;;;;18.07;16.17;;;;;;;15.45;47.76;100476.38;5077388;28;20228;-89
2021/05/01 10:45:55;;;;;;;21.03;16.97;;;;;;;15.47;48.09;100477.94;5076451;28;20207;-86
2021/05/01 10:48:22;;;;;;;19.93;17.70;;;;;;;15.47;48.80;100487.81;5090255;28;20206;-86
2021/05/01 10:51:06;;;;;;;26.20;21.67;;;;;;;15.49;50.12;100485.88;5089051;28;20308;-86
2021/05/01 10:53:34;;;;;;;25.47;21.70;;;;;;;15.48;51.24;100476.97;5074822;28;20200;-85
2021/05/01 10:56:00;;;;;;;24.37;20.67;;;;;;;15.41;51.81;100489.19;5088223;28;20228;-86
2021/05/01 10:58:32;;;;;;;28.33;22.67;;;;;;;15.31;52.70;100482.94;5097429;28;20208;-86
2021/05/01 11:00:58;;;;;;;26.80;21.90;;;;;;;15.26;52.87;100494.06;5098995;28;20204;-86
2021/05/01 11:03:25;;;;;;;26.03;21.63;;;;;;;15.20;52.84;100491.06;5091861;28;20697;-86
2021/05/01 11:05:54;;;;;;;27.30;22.13;;;;;;;15.14;53.48;100488.88;5079466;28;20213;-85
2021/05/01 11:08:30;;;;;;;26.70;21.13;;;;;;;15.10;53.52;100493.66;5086492;28;20223;-89
2021/05/01 11:10:58;;;;;;;25.83;21.90;;;;;;;15.08;54.25;100500.13;5079412;28;20207;-89
2021/05/01 11:13:26;;;;;;;30.33;22.73;;;;;;;15.10;53.81;100501.69;5085673;28;20205;-91
2021/05/01 11:15:56;;;;;;;28.00;23.50;;;;;;;15.07;53.65;100507.31;5087023;28;20211;-91